sensor_id;sensor_type;location;lat;lon;timestamp;temperature;humidity
31967;DHT22;18496;52.042;6.812;2024-01-30T00:01:00;10.00;99.90
31967;DHT22;18496;52.042;6.812;2024-01-30T00:03:04;10.00;99.90
31967;DHT22;18496;52.042;6.812;2024-01-30T00:05:07;10.00;99.90
31967;DHT22;18496;52.042;6.812;2024-01-30T00:07:11;10.00;99.90
31967;DHT22;18496;52.042;6.812;2024-01-30T00:09:15;10.00;99.90
31967;DHT22;18496;52.042;6.812;2024-01-30T00:11:18;10.00;99.90
31967;DHT22;18496;52.042;6.812;2024-01-30T00:13:22;10.00;99.90
31967;DHT22;18496;52.042;6.812;2024-01-30T00:15:26;10.00;99.90
31967;DHT22;18496;52.042;6.812;2024-01-30T00:17:29;10.00;99.90
31967;DHT22;18496;52.042;6.812;2024-01-30T00:19:33;10.00;99.90
31967;DHT22;18496;52.042;6.812;2024-01-30T00:21:37;10.00;99.90
31967;DHT22;18496;52.042;6.812;2024-01-30T00:23:40;9.90;99.90
31967;DHT22;18496;52.042;6.812;2024-01-30T00:25:44;10.00;99.90
31967;DHT22;18496;52.042;6.812;2024-01-30T00:27:48;9.90;99.90
31967;DHT22;18496;52.042;6.812;2024-01-30T00:29:51;9.90;99.90
31967;DHT22;18496;52.042;6.812;2024-01-30T00:31:55;9.90;99.90
31967;DHT22;18496;52.042;6.812;2024-01-30T00:33:58;9.90;99.90
31967;DHT22;18496;52.042;6.812;2024-01-30T00:36:02;9.90;99.90
31967;DHT22;18496;52.042;6.812;2024-01-30T00:38:06;9.90;99.90
31967;DHT22;18496;52.042;6.812;2024-01-30T00:40:11;9.90;99.90
31967;DHT22;18496;52.042;6.812;2024-01-30T00:42:19;9.90;99.90
31967;DHT22;18496;52.042;6.812;2024-01-30T00:44:22;9.90;99.90
31967;DHT22;18496;52.042;6.812;2024-01-30T00:46:26;9.90;99.90
31967;DHT22;18496;52.042;6.812;2024-01-30T00:48:30;9.90;99.90
31967;DHT22;18496;52.042;6.812;2024-01-30T00:50:33;9.80;99.90
31967;DHT22;18496;52.042;6.812;2024-01-30T00:52:37;9.90;99.90
31967;DHT22;18496;52.042;6.812;2024-01-30T00:54:42;9.90;99.90
31967;DHT22;18496;52.042;6.812;2024-01-30T00:56:46;9.90;99.90
31967;DHT22;18496;52.042;6.812;2024-01-30T00:58:50;9.90;99.90
31967;DHT22;18496;52.042;6.812;2024-01-30T01:00:53;9.80;99.90
31967;DHT22;18496;52.042;6.812;2024-01-30T01:03:00;9.80;99.90
31967;DHT22;18496;52.042;6.812;2024-01-30T01:05:05;9.90;99.90
31967;DHT22;18496;52.042;6.812;2024-01-30T01:07:09;9.90;99.90
31967;DHT22;18496;52.042;6.812;2024-01-30T01:09:12;9.90;99.90
31967;DHT22;18496;52.042;6.812;2024-01-30T01:11:16;9.80;99.90
31967;DHT22;18496;52.042;6.812;2024-01-30T01:13:20;9.90;99.90
31967;DHT22;18496;52.042;6.812;2024-01-30T01:15:23;9.90;99.90
31967;DHT22;18496;52.042;6.812;2024-01-30T01:17:27;9.90;99.90
31967;DHT22;18496;52.042;6.812;2024-01-30T01:19:31;9.80;99.90
31967;DHT22;18496;52.042;6.812;2024-01-30T01:21:34;9.80;99.90
31967;DHT22;18496;52.042;6.812;2024-01-30T01:23:38;9.80;99.90
31967;DHT22;18496;52.042;6.812;2024-01-30T01:25:42;9.80;99.90
31967;DHT22;18496;52.042;6.812;2024-01-30T01:27:45;9.80;99.90
31967;DHT22;18496;52.042;6.812;2024-01-30T01:29:54;9.80;99.90
31967;DHT22;18496;52.042;6.812;2024-01-30T01:31:58;9.80;99.90
31967;DHT22;18496;52.042;6.812;2024-01-30T01:34:02;9.80;99.90
31967;DHT22;18496;52.042;6.812;2024-01-30T01:36:06;9.80;99.90
31967;DHT22;18496;52.042;6.812;2024-01-30T01:38:10;9.90;99.90
31967;DHT22;18496;52.042;6.812;2024-01-30T01:40:14;9.90;99.90
31967;DHT22;18496;52.042;6.812;2024-01-30T01:42:18;9.90;99.90
31967;DHT22;18496;52.042;6.812;2024-01-30T01:44:22;9.90;99.90
31967;DHT22;18496;52.042;6.812;2024-01-30T01:46:32;9.90;99.90
31967;DHT22;18496;52.042;6.812;2024-01-30T01:48:36;9.90;99.90
31967;DHT22;18496;52.042;6.812;2024-01-30T01:50:43;9.90;99.90
31967;DHT22;18496;52.042;6.812;2024-01-30T01:52:50;9.90;99.90
31967;DHT22;18496;52.042;6.812;2024-01-30T01:54:54;9.90;99.90
31967;DHT22;18496;52.042;6.812;2024-01-30T01:56:58;9.90;99.90
31967;DHT22;18496;52.042;6.812;2024-01-30T01:59:07;9.90;99.90
31967;DHT22;18496;52.042;6.812;2024-01-30T02:01:13;9.90;99.90
31967;DHT22;18496;52.042;6.812;2024-01-30T02:03:17;9.90;99.90
31967;DHT22;18496;52.042;6.812;2024-01-30T02:05:22;9.90;99.90
31967;DHT22;18496;52.042;6.812;2024-01-30T02:07:27;9.80;99.90
31967;DHT22;18496;52.042;6.812;2024-01-30T02:09:31;9.90;99.90
31967;DHT22;18496;52.042;6.812;2024-01-30T02:11:35;9.90;99.90
31967;DHT22;18496;52.042;6.812;2024-01-30T02:13:38;9.80;99.90
31967;DHT22;18496;52.042;6.812;2024-01-30T02:15:42;9.80;99.90
31967;DHT22;18496;52.042;6.812;2024-01-30T02:17:45;9.80;99.90
31967;DHT22;18496;52.042;6.812;2024-01-30T02:19:49;9.80;99.90
31967;DHT22;18496;52.042;6.812;2024-01-30T02:21:53;9.90;99.90
31967;DHT22;18496;52.042;6.812;2024-01-30T02:23:58;9.80;99.90
31967;DHT22;18496;52.042;6.812;2024-01-30T02:26:03;9.80;99.90
31967;DHT22;18496;52.042;6.812;2024-01-30T02:28:07;9.80;99.90
31967;DHT22;18496;52.042;6.812;2024-01-30T02:30:11;9.80;99.90
31967;DHT22;18496;52.042;6.812;2024-01-30T02:32:15;9.80;99.90
31967;DHT22;18496;52.042;6.812;2024-01-30T02:34:19;9.80;99.90
31967;DHT22;18496;52.042;6.812;2024-01-30T02:36:22;9.80;99.90
31967;DHT22;18496;52.042;6.812;2024-01-30T02:38:26;9.70;99.90
31967;DHT22;18496;52.042;6.812;2024-01-30T02:40:31;9.80;99.90
31967;DHT22;18496;52.042;6.812;2024-01-30T02:42:34;9.80;99.90
31967;DHT22;18496;52.042;6.812;2024-01-30T02:44:38;9.80;99.90
31967;DHT22;18496;52.042;6.812;2024-01-30T02:46:42;9.80;99.90
31967;DHT22;18496;52.042;6.812;2024-01-30T02:48:45;9.80;99.90
31967;DHT22;18496;52.042;6.812;2024-01-30T02:50:49;9.80;99.90
31967;DHT22;18496;52.042;6.812;2024-01-30T02:52:53;9.70;99.90
31967;DHT22;18496;52.042;6.812;2024-01-30T02:54:56;9.70;99.90
31967;DHT22;18496;52.042;6.812;2024-01-30T02:57:00;9.70;99.90
31967;DHT22;18496;52.042;6.812;2024-01-30T02:59:03;9.70;99.90
31967;DHT22;18496;52.042;6.812;2024-01-30T03:01:07;9.70;99.90
31967;DHT22;18496;52.042;6.812;2024-01-30T03:03:11;9.70;99.90
31967;DHT22;18496;52.042;6.812;2024-01-30T03:05:14;9.70;99.90
31967;DHT22;18496;52.042;6.812;2024-01-30T03:07:18;9.70;99.90
31967;DHT22;18496;52.042;6.812;2024-01-30T03:09:22;9.70;99.90
31967;DHT22;18496;52.042;6.812;2024-01-30T03:11:25;9.70;99.90
31967;DHT22;18496;52.042;6.812;2024-01-30T03:13:29;9.70;99.90
31967;DHT22;18496;52.042;6.812;2024-01-30T03:15:33;9.70;99.90
31967;DHT22;18496;52.042;6.812;2024-01-30T03:17:36;9.70;99.90
31967;DHT22;18496;52.042;6.812;2024-01-30T03:19:40;9.70;99.90
31967;DHT22;18496;52.042;6.812;2024-01-30T03:21:44;9.70;99.90
31967;DHT22;18496;52.042;6.812;2024-01-30T03:23:47;9.70;99.90
31967;DHT22;18496;52.042;6.812;2024-01-30T03:25:51;9.70;99.90
31967;DHT22;18496;52.042;6.812;2024-01-30T03:27:55;9.70;99.90
31967;DHT22;18496;52.042;6.812;2024-01-30T03:29:58;9.70;99.90
31967;DHT22;18496;52.042;6.812;2024-01-30T03:32:02;9.60;99.90
31967;DHT22;18496;52.042;6.812;2024-01-30T03:34:07;9.60;99.90
31967;DHT22;18496;52.042;6.812;2024-01-30T03:36:11;9.60;99.90
31967;DHT22;18496;52.042;6.812;2024-01-30T03:38:14;9.60;99.90
31967;DHT22;18496;52.042;6.812;2024-01-30T03:40:18;9.60;99.90
31967;DHT22;18496;52.042;6.812;2024-01-30T03:42:22;9.60;99.90
31967;DHT22;18496;52.042;6.812;2024-01-30T03:44:25;9.60;99.90
31967;DHT22;18496;52.042;6.812;2024-01-30T03:46:29;9.60;99.90
31967;DHT22;18496;52.042;6.812;2024-01-30T03:48:33;9.60;99.90
31967;DHT22;18496;52.042;6.812;2024-01-30T03:50:36;9.60;99.90
31967;DHT22;18496;52.042;6.812;2024-01-30T03:52:40;9.60;99.90
31967;DHT22;18496;52.042;6.812;2024-01-30T03:54:44;9.60;99.90
31967;DHT22;18496;52.042;6.812;2024-01-30T03:56:48;9.60;99.90
31967;DHT22;18496;52.042;6.812;2024-01-30T03:58:51;9.60;99.90
31967;DHT22;18496;52.042;6.812;2024-01-30T04:00:55;9.50;99.90
31967;DHT22;18496;52.042;6.812;2024-01-30T04:02:59;9.50;99.90
31967;DHT22;18496;52.042;6.812;2024-01-30T04:05:02;9.60;99.90
31967;DHT22;18496;52.042;6.812;2024-01-30T04:07:06;9.50;99.90
31967;DHT22;18496;52.042;6.812;2024-01-30T04:09:10;9.50;99.90
31967;DHT22;18496;52.042;6.812;2024-01-30T04:11:14;9.50;99.90
31967;DHT22;18496;52.042;6.812;2024-01-30T04:13:18;9.50;99.90
31967;DHT22;18496;52.042;6.812;2024-01-30T04:15:22;9.50;99.90
31967;DHT22;18496;52.042;6.812;2024-01-30T04:17:25;9.50;99.90
31967;DHT22;18496;52.042;6.812;2024-01-30T04:19:29;9.50;99.90
31967;DHT22;18496;52.042;6.812;2024-01-30T04:21:33;9.60;99.90
31967;DHT22;18496;52.042;6.812;2024-01-30T04:23:36;9.60;99.90
31967;DHT22;18496;52.042;6.812;2024-01-30T04:25:40;9.60;99.90
31967;DHT22;18496;52.042;6.812;2024-01-30T04:27:44;9.50;99.90
31967;DHT22;18496;52.042;6.812;2024-01-30T04:29:47;9.60;99.90
31967;DHT22;18496;52.042;6.812;2024-01-30T04:31:51;9.60;99.90
31967;DHT22;18496;52.042;6.812;2024-01-30T04:33:55;9.50;99.90
31967;DHT22;18496;52.042;6.812;2024-01-30T04:35:58;9.60;99.90
31967;DHT22;18496;52.042;6.812;2024-01-30T04:38:02;9.50;99.90
31967;DHT22;18496;52.042;6.812;2024-01-30T04:40:06;9.60;99.90
31967;DHT22;18496;52.042;6.812;2024-01-30T04:42:10;9.50;99.90
31967;DHT22;18496;52.042;6.812;2024-01-30T04:44:14;9.50;99.90
31967;DHT22;18496;52.042;6.812;2024-01-30T04:46:18;9.50;99.90
31967;DHT22;18496;52.042;6.812;2024-01-30T04:48:21;9.50;99.90
31967;DHT22;18496;52.042;6.812;2024-01-30T04:50:25;9.50;99.90
31967;DHT22;18496;52.042;6.812;2024-01-30T04:52:30;9.50;99.90
31967;DHT22;18496;52.042;6.812;2024-01-30T04:54:35;9.50;99.90
31967;DHT22;18496;52.042;6.812;2024-01-30T04:56:38;9.60;99.90
31967;DHT22;18496;52.042;6.812;2024-01-30T04:58:43;9.60;99.90
31967;DHT22;18496;52.042;6.812;2024-01-30T05:00:46;9.50;99.90
31967;DHT22;18496;52.042;6.812;2024-01-30T05:02:56;9.50;99.90
31967;DHT22;18496;52.042;6.812;2024-01-30T05:04:59;9.50;99.90
31967;DHT22;18496;52.042;6.812;2024-01-30T05:07:03;9.50;99.90
31967;DHT22;18496;52.042;6.812;2024-01-30T05:09:07;9.50;99.90
31967;DHT22;18496;52.042;6.812;2024-01-30T05:11:11;9.60;99.90
31967;DHT22;18496;52.042;6.812;2024-01-30T05:13:14;9.60;99.90
31967;DHT22;18496;52.042;6.812;2024-01-30T05:15:19;9.60;99.90
31967;DHT22;18496;52.042;6.812;2024-01-30T05:17:22;9.60;99.90
31967;DHT22;18496;52.042;6.812;2024-01-30T05:19:26;9.60;99.90
31967;DHT22;18496;52.042;6.812;2024-01-30T05:21:30;9.60;99.90
31967;DHT22;18496;52.042;6.812;2024-01-30T05:23:33;9.50;99.90
31967;DHT22;18496;52.042;6.812;2024-01-30T05:25:37;9.60;99.90
31967;DHT22;18496;52.042;6.812;2024-01-30T05:27:41;9.60;99.90
31967;DHT22;18496;52.042;6.812;2024-01-30T05:29:44;9.60;99.90
31967;DHT22;18496;52.042;6.812;2024-01-30T05:31:49;9.60;99.90
31967;DHT22;18496;52.042;6.812;2024-01-30T05:33:54;9.60;99.90
31967;DHT22;18496;52.042;6.812;2024-01-30T05:35:57;9.60;99.90
31967;DHT22;18496;52.042;6.812;2024-01-30T05:38:01;9.50;99.90
31967;DHT22;18496;52.042;6.812;2024-01-30T05:40:05;9.50;99.90
31967;DHT22;18496;52.042;6.812;2024-01-30T05:42:09;9.50;99.90
31967;DHT22;18496;52.042;6.812;2024-01-30T05:44:13;9.50;99.90
31967;DHT22;18496;52.042;6.812;2024-01-30T05:46:17;9.60;99.90
31967;DHT22;18496;52.042;6.812;2024-01-30T05:48:20;9.60;99.90
31967;DHT22;18496;52.042;6.812;2024-01-30T05:50:24;9.60;99.90
31967;DHT22;18496;52.042;6.812;2024-01-30T05:52:29;9.60;99.90
31967;DHT22;18496;52.042;6.812;2024-01-30T05:54:33;9.60;99.90
31967;DHT22;18496;52.042;6.812;2024-01-30T05:56:37;9.60;99.90
31967;DHT22;18496;52.042;6.812;2024-01-30T05:58:41;9.60;99.90
31967;DHT22;18496;52.042;6.812;2024-01-30T06:00:46;9.60;99.90
31967;DHT22;18496;52.042;6.812;2024-01-30T06:02:50;9.60;99.90
31967;DHT22;18496;52.042;6.812;2024-01-30T06:04:53;9.60;99.90
31967;DHT22;18496;52.042;6.812;2024-01-30T06:06:57;9.60;99.90
31967;DHT22;18496;52.042;6.812;2024-01-30T06:09:01;9.60;99.90
31967;DHT22;18496;52.042;6.812;2024-01-30T06:11:04;9.60;99.90
31967;DHT22;18496;52.042;6.812;2024-01-30T06:13:08;9.50;99.90
31967;DHT22;18496;52.042;6.812;2024-01-30T06:15:12;9.60;99.90
31967;DHT22;18496;52.042;6.812;2024-01-30T06:17:16;9.60;99.90
31967;DHT22;18496;52.042;6.812;2024-01-30T06:19:19;9.60;99.90
31967;DHT22;18496;52.042;6.812;2024-01-30T06:21:23;9.60;99.90
31967;DHT22;18496;52.042;6.812;2024-01-30T06:23:27;9.60;99.90
31967;DHT22;18496;52.042;6.812;2024-01-30T06:25:31;9.60;99.90
31967;DHT22;18496;52.042;6.812;2024-01-30T06:27:34;9.60;99.90
31967;DHT22;18496;52.042;6.812;2024-01-30T06:29:38;9.60;99.90
31967;DHT22;18496;52.042;6.812;2024-01-30T06:31:42;9.60;99.90
31967;DHT22;18496;52.042;6.812;2024-01-30T06:33:49;9.60;99.90
31967;DHT22;18496;52.042;6.812;2024-01-30T06:35:53;9.60;99.90
31967;DHT22;18496;52.042;6.812;2024-01-30T06:37:57;9.60;99.90
31967;DHT22;18496;52.042;6.812;2024-01-30T06:40:00;9.60;99.90
31967;DHT22;18496;52.042;6.812;2024-01-30T06:42:04;9.70;99.90
31967;DHT22;18496;52.042;6.812;2024-01-30T06:44:08;9.70;99.90
31967;DHT22;18496;52.042;6.812;2024-01-30T06:46:12;9.70;99.90
31967;DHT22;18496;52.042;6.812;2024-01-30T06:48:16;9.70;99.90
31967;DHT22;18496;52.042;6.812;2024-01-30T06:50:20;9.70;99.90
31967;DHT22;18496;52.042;6.812;2024-01-30T06:52:24;9.70;99.90
31967;DHT22;18496;52.042;6.812;2024-01-30T06:54:27;9.70;99.90
31967;DHT22;18496;52.042;6.812;2024-01-30T06:56:31;9.70;99.90
31967;DHT22;18496;52.042;6.812;2024-01-30T06:58:35;9.70;99.90
31967;DHT22;18496;52.042;6.812;2024-01-30T07:00:38;9.70;99.90
31967;DHT22;18496;52.042;6.812;2024-01-30T07:02:42;9.70;99.90
31967;DHT22;18496;52.042;6.812;2024-01-30T07:04:46;9.80;99.90
31967;DHT22;18496;52.042;6.812;2024-01-30T07:06:49;9.80;99.90
31967;DHT22;18496;52.042;6.812;2024-01-30T07:08:53;9.80;99.90
31967;DHT22;18496;52.042;6.812;2024-01-30T07:10:57;9.80;99.90
31967;DHT22;18496;52.042;6.812;2024-01-30T07:13:01;9.80;99.90
31967;DHT22;18496;52.042;6.812;2024-01-30T07:15:05;9.80;99.90
31967;DHT22;18496;52.042;6.812;2024-01-30T07:17:11;9.80;99.90
31967;DHT22;18496;52.042;6.812;2024-01-30T07:19:15;9.80;99.90
31967;DHT22;18496;52.042;6.812;2024-01-30T07:21:18;9.80;99.90
31967;DHT22;18496;52.042;6.812;2024-01-30T07:23:22;9.80;99.90
31967;DHT22;18496;52.042;6.812;2024-01-30T07:25:26;9.80;99.90
31967;DHT22;18496;52.042;6.812;2024-01-30T07:27:33;9.80;99.90
31967;DHT22;18496;52.042;6.812;2024-01-30T07:29:36;9.80;99.90
31967;DHT22;18496;52.042;6.812;2024-01-30T07:31:40;9.80;99.90
31967;DHT22;18496;52.042;6.812;2024-01-30T07:33:44;9.80;99.90
31967;DHT22;18496;52.042;6.812;2024-01-30T07:35:47;9.80;99.90
31967;DHT22;18496;52.042;6.812;2024-01-30T07:37:51;9.80;99.90
31967;DHT22;18496;52.042;6.812;2024-01-30T07:39:55;9.80;99.90
31967;DHT22;18496;52.042;6.812;2024-01-30T07:41:59;9.80;99.90
31967;DHT22;18496;52.042;6.812;2024-01-30T07:44:03;9.80;99.90
31967;DHT22;18496;52.042;6.812;2024-01-30T07:46:07;9.80;99.90
31967;DHT22;18496;52.042;6.812;2024-01-30T07:48:10;9.80;99.90
31967;DHT22;18496;52.042;6.812;2024-01-30T07:50:14;9.80;99.90
31967;DHT22;18496;52.042;6.812;2024-01-30T07:52:18;9.80;99.90
31967;DHT22;18496;52.042;6.812;2024-01-30T07:54:21;9.80;99.90
31967;DHT22;18496;52.042;6.812;2024-01-30T07:56:25;9.90;99.90
31967;DHT22;18496;52.042;6.812;2024-01-30T07:58:29;9.90;99.90
31967;DHT22;18496;52.042;6.812;2024-01-30T08:00:32;9.90;99.90
31967;DHT22;18496;52.042;6.812;2024-01-30T08:02:36;9.90;99.90
31967;DHT22;18496;52.042;6.812;2024-01-30T08:04:40;9.90;99.90
31967;DHT22;18496;52.042;6.812;2024-01-30T08:06:44;9.90;99.90
31967;DHT22;18496;52.042;6.812;2024-01-30T08:08:48;10.00;99.90
31967;DHT22;18496;52.042;6.812;2024-01-30T08:10:52;10.00;99.90
31967;DHT22;18496;52.042;6.812;2024-01-30T08:12:55;10.00;99.90
31967;DHT22;18496;52.042;6.812;2024-01-30T08:14:59;10.00;99.90
31967;DHT22;18496;52.042;6.812;2024-01-30T08:17:03;10.00;99.90
31967;DHT22;18496;52.042;6.812;2024-01-30T08:19:07;10.10;99.90
31967;DHT22;18496;52.042;6.812;2024-01-30T08:21:10;10.10;99.90
31967;DHT22;18496;52.042;6.812;2024-01-30T08:23:14;10.10;99.90
31967;DHT22;18496;52.042;6.812;2024-01-30T08:25:18;10.10;99.90
31967;DHT22;18496;52.042;6.812;2024-01-30T08:27:21;10.10;99.90
31967;DHT22;18496;52.042;6.812;2024-01-30T08:29:25;10.10;99.90
31967;DHT22;18496;52.042;6.812;2024-01-30T08:31:29;10.10;99.90
31967;DHT22;18496;52.042;6.812;2024-01-30T08:33:32;10.20;99.90
31967;DHT22;18496;52.042;6.812;2024-01-30T08:35:36;10.10;99.90
31967;DHT22;18496;52.042;6.812;2024-01-30T08:37:40;10.10;99.90
31967;DHT22;18496;52.042;6.812;2024-01-30T08:39:44;10.20;99.90
31967;DHT22;18496;52.042;6.812;2024-01-30T08:41:47;10.20;99.90
31967;DHT22;18496;52.042;6.812;2024-01-30T08:43:52;10.20;99.90
31967;DHT22;18496;52.042;6.812;2024-01-30T08:45:58;10.20;99.90
31967;DHT22;18496;52.042;6.812;2024-01-30T08:48:02;10.20;99.90
31967;DHT22;18496;52.042;6.812;2024-01-30T08:50:06;10.20;99.90
31967;DHT22;18496;52.042;6.812;2024-01-30T08:52:11;10.20;99.90
31967;DHT22;18496;52.042;6.812;2024-01-30T08:54:14;10.20;99.90
31967;DHT22;18496;52.042;6.812;2024-01-30T08:56:18;10.30;99.90
31967;DHT22;18496;52.042;6.812;2024-01-30T08:58:22;10.30;99.90
31967;DHT22;18496;52.042;6.812;2024-01-30T09:00:25;10.30;99.90
31967;DHT22;18496;52.042;6.812;2024-01-30T09:02:29;10.30;99.90
31967;DHT22;18496;52.042;6.812;2024-01-30T09:04:33;10.40;99.90
31967;DHT22;18496;52.042;6.812;2024-01-30T09:06:36;10.40;99.90
31967;DHT22;18496;52.042;6.812;2024-01-30T09:08:42;10.40;99.90
31967;DHT22;18496;52.042;6.812;2024-01-30T09:10:46;10.50;99.90
31967;DHT22;18496;52.042;6.812;2024-01-30T09:12:50;10.40;99.90
31967;DHT22;18496;52.042;6.812;2024-01-30T09:14:53;10.50;99.90
31967;DHT22;18496;52.042;6.812;2024-01-30T09:16:58;10.50;99.90
31967;DHT22;18496;52.042;6.812;2024-01-30T09:19:02;10.50;99.90
31967;DHT22;18496;52.042;6.812;2024-01-30T09:21:05;10.50;99.90
31967;DHT22;18496;52.042;6.812;2024-01-30T09:23:09;10.50;99.90
31967;DHT22;18496;52.042;6.812;2024-01-30T09:25:13;10.50;99.90
31967;DHT22;18496;52.042;6.812;2024-01-30T09:27:16;10.50;99.90
31967;DHT22;18496;52.042;6.812;2024-01-30T09:29:21;10.50;99.90
31967;DHT22;18496;52.042;6.812;2024-01-30T09:31:25;10.60;99.90
31967;DHT22;18496;52.042;6.812;2024-01-30T09:33:28;10.60;99.90
31967;DHT22;18496;52.042;6.812;2024-01-30T09:35:32;10.70;99.90
31967;DHT22;18496;52.042;6.812;2024-01-30T09:37:37;10.60;99.90
31967;DHT22;18496;52.042;6.812;2024-01-30T09:39:40;10.60;99.90
31967;DHT22;18496;52.042;6.812;2024-01-30T09:42:11;10.70;99.90
31967;DHT22;18496;52.042;6.812;2024-01-30T09:44:19;10.70;99.90
31967;DHT22;18496;52.042;6.812;2024-01-30T09:46:26;10.70;99.90
31967;DHT22;18496;52.042;6.812;2024-01-30T09:48:34;10.70;99.90
31967;DHT22;18496;52.042;6.812;2024-01-30T09:50:38;10.70;99.90
31967;DHT22;18496;52.042;6.812;2024-01-30T09:52:44;10.80;99.90
31967;DHT22;18496;52.042;6.812;2024-01-30T09:54:49;10.80;99.90
31967;DHT22;18496;52.042;6.812;2024-01-30T09:56:54;10.80;99.90
31967;DHT22;18496;52.042;6.812;2024-01-30T09:58:58;10.90;99.90
31967;DHT22;18496;52.042;6.812;2024-01-30T10:01:01;10.90;99.90
31967;DHT22;18496;52.042;6.812;2024-01-30T10:03:06;10.90;99.90
31967;DHT22;18496;52.042;6.812;2024-01-30T10:05:09;11.00;99.90
31967;DHT22;18496;52.042;6.812;2024-01-30T10:07:15;11.00;99.90
31967;DHT22;18496;52.042;6.812;2024-01-30T10:09:18;11.10;99.90
31967;DHT22;18496;52.042;6.812;2024-01-30T10:11:22;11.10;99.90
31967;DHT22;18496;52.042;6.812;2024-01-30T10:13:26;11.20;99.90
31967;DHT22;18496;52.042;6.812;2024-01-30T10:15:30;11.20;99.90
31967;DHT22;18496;52.042;6.812;2024-01-30T10:17:33;11.30;99.90
31967;DHT22;18496;52.042;6.812;2024-01-30T10:19:41;11.30;99.90
31967;DHT22;18496;52.042;6.812;2024-01-30T10:21:46;11.30;99.90
31967;DHT22;18496;52.042;6.812;2024-01-30T10:23:49;11.30;99.90
31967;DHT22;18496;52.042;6.812;2024-01-30T10:25:53;11.40;99.90
31967;DHT22;18496;52.042;6.812;2024-01-30T10:27:58;11.40;99.90
31967;DHT22;18496;52.042;6.812;2024-01-30T10:30:02;11.40;99.90
31967;DHT22;18496;52.042;6.812;2024-01-30T10:32:07;11.40;99.90
31967;DHT22;18496;52.042;6.812;2024-01-30T10:34:11;11.40;99.90
31967;DHT22;18496;52.042;6.812;2024-01-30T10:36:14;11.50;99.90
31967;DHT22;18496;52.042;6.812;2024-01-30T10:38:19;11.50;99.90
31967;DHT22;18496;52.042;6.812;2024-01-30T10:40:27;11.50;99.90
31967;DHT22;18496;52.042;6.812;2024-01-30T10:42:32;11.50;99.90
31967;DHT22;18496;52.042;6.812;2024-01-30T10:45:00;11.60;99.90
31967;DHT22;18496;52.042;6.812;2024-01-30T10:47:11;11.60;99.90
31967;DHT22;18496;52.042;6.812;2024-01-30T10:49:16;11.60;99.90
31967;DHT22;18496;52.042;6.812;2024-01-30T10:51:22;11.60;99.90
31967;DHT22;18496;52.042;6.812;2024-01-30T10:53:26;11.60;99.90
31967;DHT22;18496;52.042;6.812;2024-01-30T10:55:31;11.60;99.90
31967;DHT22;18496;52.042;6.812;2024-01-30T10:57:38;11.60;99.90
31967;DHT22;18496;52.042;6.812;2024-01-30T10:59:43;11.60;99.90
31967;DHT22;18496;52.042;6.812;2024-01-30T11:01:50;11.60;99.90
31967;DHT22;18496;52.042;6.812;2024-01-30T11:03:55;11.60;99.90
31967;DHT22;18496;52.042;6.812;2024-01-30T11:06:00;11.60;99.90
31967;DHT22;18496;52.042;6.812;2024-01-30T11:08:14;11.70;99.90
31967;DHT22;18496;52.042;6.812;2024-01-30T11:10:17;11.70;99.90
31967;DHT22;18496;52.042;6.812;2024-01-30T11:12:24;11.70;99.90
31967;DHT22;18496;52.042;6.812;2024-01-30T11:14:31;11.70;99.90
31967;DHT22;18496;52.042;6.812;2024-01-30T11:16:35;11.70;99.90
31967;DHT22;18496;52.042;6.812;2024-01-30T11:18:39;11.70;99.90
31967;DHT22;18496;52.042;6.812;2024-01-30T11:20:46;11.70;99.90
31967;DHT22;18496;52.042;6.812;2024-01-30T11:22:52;11.80;99.90
31967;DHT22;18496;52.042;6.812;2024-01-30T11:24:56;11.80;99.90
31967;DHT22;18496;52.042;6.812;2024-01-30T11:27:00;11.80;99.90
31967;DHT22;18496;52.042;6.812;2024-01-30T11:29:08;11.80;99.90
31967;DHT22;18496;52.042;6.812;2024-01-30T11:31:18;11.80;99.90
31967;DHT22;18496;52.042;6.812;2024-01-30T11:33:29;11.80;99.90
31967;DHT22;18496;52.042;6.812;2024-01-30T11:35:46;11.80;99.90
31967;DHT22;18496;52.042;6.812;2024-01-30T11:37:51;11.80;99.90
31967;DHT22;18496;52.042;6.812;2024-01-30T11:39:55;11.80;99.90
31967;DHT22;18496;52.042;6.812;2024-01-30T11:41:59;11.80;99.90
31967;DHT22;18496;52.042;6.812;2024-01-30T11:44:04;11.80;99.90
31967;DHT22;18496;52.042;6.812;2024-01-30T11:46:07;11.80;99.90
31967;DHT22;18496;52.042;6.812;2024-01-30T11:48:12;11.90;99.90
31967;DHT22;18496;52.042;6.812;2024-01-30T11:50:16;11.90;99.90
31967;DHT22;18496;52.042;6.812;2024-01-30T11:52:20;11.90;99.90
31967;DHT22;18496;52.042;6.812;2024-01-30T11:54:24;11.90;99.90
31967;DHT22;18496;52.042;6.812;2024-01-30T11:56:27;11.90;99.90
31967;DHT22;18496;52.042;6.812;2024-01-30T11:58:31;11.90;99.90
31967;DHT22;18496;52.042;6.812;2024-01-30T12:00:35;11.90;99.90
31967;DHT22;18496;52.042;6.812;2024-01-30T12:02:39;11.90;99.90
31967;DHT22;18496;52.042;6.812;2024-01-30T12:04:43;12.00;99.90
31967;DHT22;18496;52.042;6.812;2024-01-30T12:06:51;12.00;99.90
31967;DHT22;18496;52.042;6.812;2024-01-30T12:08:59;12.00;99.90
31967;DHT22;18496;52.042;6.812;2024-01-30T12:11:03;12.00;99.90
31967;DHT22;18496;52.042;6.812;2024-01-30T12:13:09;12.00;99.90
31967;DHT22;18496;52.042;6.812;2024-01-30T12:15:14;12.00;99.90
31967;DHT22;18496;52.042;6.812;2024-01-30T12:17:32;12.10;99.90
31967;DHT22;18496;52.042;6.812;2024-01-30T12:19:36;12.10;99.90
31967;DHT22;18496;52.042;6.812;2024-01-30T12:21:40;12.10;99.90
31967;DHT22;18496;52.042;6.812;2024-01-30T12:23:44;12.10;99.90
31967;DHT22;18496;52.042;6.812;2024-01-30T12:25:49;12.10;99.90
31967;DHT22;18496;52.042;6.812;2024-01-30T12:27:53;12.20;99.90
31967;DHT22;18496;52.042;6.812;2024-01-30T12:29:57;12.10;99.90
31967;DHT22;18496;52.042;6.812;2024-01-30T12:32:04;12.20;99.90
31967;DHT22;18496;52.042;6.812;2024-01-30T12:34:08;12.20;99.90
31967;DHT22;18496;52.042;6.812;2024-01-30T12:36:12;12.20;99.90
31967;DHT22;18496;52.042;6.812;2024-01-30T12:38:16;12.20;99.90
31967;DHT22;18496;52.042;6.812;2024-01-30T12:40:20;12.20;99.90
31967;DHT22;18496;52.042;6.812;2024-01-30T12:42:24;12.20;99.90
31967;DHT22;18496;52.042;6.812;2024-01-30T12:44:29;12.30;99.90
31967;DHT22;18496;52.042;6.812;2024-01-30T12:46:36;12.30;99.90
31967;DHT22;18496;52.042;6.812;2024-01-30T12:48:40;12.30;99.90
31967;DHT22;18496;52.042;6.812;2024-01-30T12:50:43;12.30;99.90
31967;DHT22;18496;52.042;6.812;2024-01-30T12:52:48;12.30;99.90
31967;DHT22;18496;52.042;6.812;2024-01-30T12:54:52;12.30;99.90
31967;DHT22;18496;52.042;6.812;2024-01-30T12:56:56;12.40;99.90
31967;DHT22;18496;52.042;6.812;2024-01-30T12:59:00;12.40;99.90
31967;DHT22;18496;52.042;6.812;2024-01-30T13:01:03;12.40;99.90
31967;DHT22;18496;52.042;6.812;2024-01-30T13:03:07;12.40;99.90
31967;DHT22;18496;52.042;6.812;2024-01-30T13:05:12;12.40;99.90
31967;DHT22;18496;52.042;6.812;2024-01-30T13:07:15;12.40;99.90
31967;DHT22;18496;52.042;6.812;2024-01-30T13:09:19;12.40;99.90
31967;DHT22;18496;52.042;6.812;2024-01-30T13:11:23;12.40;99.90
31967;DHT22;18496;52.042;6.812;2024-01-30T13:13:29;12.40;99.90